Time;durP1;ratioP1;P1;durP2;ratioP2;P2;SDS_P1;SDS_P2;PMS_P1;PMS_P2;Temp;Humidity;BMP_temperature;BMP_pressure;BME280_temperature;BME280_humidity;BME280_pressure;Samples;Min_cycle;Max_cycle;Signal;HPM_P1;HPM_P2
2023/09/14 00:00:33;;;;;;;;;;;;;;;;;;7371673;19;1977;-62
2023/09/14 00:03:02;;;;;;;;;;;;;;;;;;7371492;19;2067;-62
2023/09/14 00:05:30;;;;;;;;;;;;;;;;;;7372381;19;1689;-61
2023/09/14 00:07:59;;;;;;;;;;;;;;;;;;7369458;19;1709;-62
2023/09/14 00:10:27;;;;;;;;;;;;;;;;;;7373220;19;1451;-62
2023/09/14 00:12:55;;;;;;;;;;;;;;;;;;7369398;19;778;-62
2023/09/14 00:15:23;;;;;;;;;;;;;;;;;;7369716;19;1732;-64
2023/09/14 00:17:52;;;;;;;;;;;;;;;;;;7370361;19;1957;-61
2023/09/14 00:20:20;;;;;;;;;;;;;;;;;;7373227;19;1218;-62
2023/09/14 00:22:48;;;;;;;;;;;;;;;;;;7369822;19;826;-62
2023/09/14 00:25:16;;;;;;;;;;;;;;;;;;7369148;19;1812;-61
2023/09/14 00:27:45;;;;;;;;;;;;;;;;;;7368468;19;1984;-62
2023/09/14 00:30:13;;;;;;;;;;;;;;;;;;7368734;19;1681;-63
2023/09/14 00:32:42;;;;;;;;;;;;;;;;;;7368950;19;805;-63
2023/09/14 00:35:11;;;;;;;;;;;;;;;;;;7366498;19;1719;-62
2023/09/14 00:37:39;;;;;;;;;;;;;;;;;;7368192;19;2002;-62
2023/09/14 00:40:07;;;;;;;;;;;;;;;;;;7372486;19;1475;-62
2023/09/14 00:42:38;;;;;;;;;;;;;;;;;;7368537;19;2012;-62
2023/09/14 00:45:06;;;;;;;;;;;;;;;;;;7369466;19;1688;-63
2023/09/14 00:47:34;;;;;;;;;;;;;;;;;;7367376;19;1934;-62
2023/09/14 00:50:02;;;;;;;;;;;;;;;;;;7370609;19;1681;-63
2023/09/14 00:52:30;;;;;;;;;;;;;;;;;;7368226;19;750;-62
2023/09/14 00:54:58;;;;;;;;;;;;;;;;;;7367036;19;1674;-63
2023/09/14 00:57:27;;;;;;;;;;;;;;;;;;7368425;19;1929;-62
2023/09/14 00:59:55;;;;;;;;;;;;;;;;;;7370767;19;1638;-63
2023/09/14 01:02:23;;;;;;;;;;;;;;;;;;7369769;19;1678;-62
2023/09/14 01:04:51;;;;;;;;;;;;;;;;;;7368884;19;1786;-62
2023/09/14 01:07:19;;;;;;;;;;;;;;;;;;7365149;19;1873;-63
2023/09/14 01:09:47;;;;;;;;;;;;;;;;;;7369993;19;1470;-63
2023/09/14 01:12:16;;;;;;;;;;;;;;;;;;7372305;19;1604;-63
2023/09/14 01:14:44;;;;;;;;;;;;;;;;;;7369034;19;1543;-61
2023/09/14 01:17:12;;;;;;;;;;;;;;;;;;7366903;19;1854;-62
2023/09/14 01:19:41;;;;;;;;;;;;;;;;;;7369973;19;1702;-62
2023/09/14 01:22:06;;;;;;;;;;;;;;;;;;7369532;19;1709;-62
2023/09/14 01:24:34;;;;;;;;;;;;;;;;;;7365411;19;820;-61
2023/09/14 01:27:03;;;;;;;;;;;;;;;;;;7367762;19;1934;-61
2023/09/14 01:29:32;;;;;;;;;;;;;;;;;;7369234;19;1898;-62
2023/09/14 01:32:00;;;;;;;;;;;;;;;;;;7369513;19;1504;-62
2023/09/14 01:34:28;;;;;;;;;;;;;;;;;;7370254;19;1493;-62
2023/09/14 01:36:56;;;;;;;;;;;;;;;;;;7364696;19;1858;-61
2023/09/14 01:39:25;;;;;;;;;;;;;;;;;;7369383;19;1700;-61
2023/09/14 01:41:55;;;;;;;;;;;;;;;;;;7366921;19;1947;-61
2023/09/14 01:44:25;;;;;;;;;;;;;;;;;;7367669;19;1742;-64
2023/09/14 01:46:53;;;;;;;;;;;;;;;;;;7366629;19;1725;-62
2023/09/14 01:49:21;;;;;;;;;;;;;;;;;;7368142;19;1774;-62
2023/09/14 01:51:49;;;;;;;;;;;;;;;;;;7368387;19;1735;-62
2023/09/14 01:54:17;;;;;;;;;;;;;;;;;;7366027;19;803;-61
2023/09/14 01:56:46;;;;;;;;;;;;;;;;;;7366202;19;1995;-62
2023/09/14 01:59:14;;;;;;;;;;;;;;;;;;7364207;19;1996;-62
2023/09/14 02:01:42;;;;;;;;;;;;;;;;;;7367779;19;1801;-61
2023/09/14 02:04:11;;;;;;;;;;;;;;;;;;7368985;19;1699;-62
2023/09/14 02:06:39;;;;;;;;;;;;;;;;;;7366026;19;1712;-61
2023/09/14 02:09:07;;;;;;;;;;;;;;;;;;7368460;19;2068;-61
2023/09/14 02:11:36;;;;;;;;;;;;;;;;;;7368161;19;1750;-62
2023/09/14 02:14:04;;;;;;;;;;;;;;;;;;7364179;19;1929;-62
2023/09/14 02:16:32;;;;;;;;;;;;;;;;;;7367588;19;1958;-62
2023/09/14 02:19:00;;;;;;;;;;;;;;;;;;7365897;19;1855;-60
2023/09/14 02:21:28;;;;;;;;;;;;;;;;;;7369331;19;1712;-61
2023/09/14 02:23:57;;;;;;;;;;;;;;;;;;7365793;19;1761;-61
2023/09/14 02:26:25;;;;;;;;;;;;;;;;;;7365867;19;1772;-61
2023/09/14 02:28:53;;;;;;;;;;;;;;;;;;7368158;19;1693;-62
2023/09/14 02:31:22;;;;;;;;;;;;;;;;;;7365316;19;875;-59
2023/09/14 02:33:50;;;;;;;;;;;;;;;;;;7363781;19;822;-60
2023/09/14 02:36:18;;;;;;;;;;;;;;;;;;7365295;19;1649;-61
2023/09/14 02:38:47;;;;;;;;;;;;;;;;;;7364223;19;1869;-61
2023/09/14 02:41:15;;;;;;;;;;;;;;;;;;7366103;19;1741;-62
2023/09/14 02:43:44;;;;;;;;;;;;;;;;;;7367495;19;1510;-61
2023/09/14 02:46:12;;;;;;;;;;;;;;;;;;7362787;19;1343;-62
2023/09/14 02:48:40;;;;;;;;;;;;;;;;;;7364987;19;896;-61
2023/09/14 02:51:08;;;;;;;;;;;;;;;;;;7365999;19;2138;-63
2023/09/14 02:53:36;;;;;;;;;;;;;;;;;;7368216;19;1781;-62
2023/09/14 02:56:04;;;;;;;;;;;;;;;;;;7371125;19;1992;-62
2023/09/14 02:58:32;;;;;;;;;;;;;;;;;;7369687;19;1845;-62
2023/09/14 03:01:00;;;;;;;;;;;;;;;;;;7373591;19;1991;-63
2023/09/14 03:03:29;;;;;;;;;;;;;;;;;;7373029;19;1597;-61
2023/09/14 03:05:57;;;;;;;;;;;;;;;;;;7373127;19;1442;-62
2023/09/14 03:08:25;;;;;;;;;;;;;;;;;;7369155;19;1845;-61
2023/09/14 03:10:53;;;;;;;;;;;;;;;;;;7373048;19;1520;-61
2023/09/14 03:13:22;;;;;;;;;;;;;;;;;;7369862;19;1671;-61
2023/09/14 03:15:50;;;;;;;;;;;;;;;;;;7371497;19;1871;-61
2023/09/14 03:18:18;;;;;;;;;;;;;;;;;;7371845;19;1842;-61
2023/09/14 03:20:46;;;;;;;;;;;;;;;;;;7368186;19;1938;-61
2023/09/14 03:23:14;;;;;;;;;;;;;;;;;;7371356;19;2062;-61
2023/09/14 03:25:42;;;;;;;;;;;;;;;;;;7369328;19;2084;-61
2023/09/14 03:28:10;;;;;;;;;;;;;;;;;;7371629;19;1687;-59
2023/09/14 03:30:39;;;;;;;;;;;;;;;;;;7370069;19;868;-61
2023/09/14 03:33:07;;;;;;;;;;;;;;;;;;7368708;19;1733;-61
2023/09/14 03:35:35;;;;;;;;;;;;;;;;;;7371074;19;1721;-60
2023/09/14 03:38:03;;;;;;;;;;;;;;;;;;7368827;19;2024;-62
2023/09/14 03:40:31;;;;;;;;;;;;;;;;;;7371723;19;1478;-62
2023/09/14 03:43:00;;;;;;;;;;;;;;;;;;7370347;19;2106;-62
2023/09/14 03:45:28;;;;;;;;;;;;;;;;;;7371349;19;1714;-61
2023/09/14 03:47:56;;;;;;;;;;;;;;;;;;7366875;19;1970;-61
2023/09/14 03:50:24;;;;;;;;;;;;;;;;;;7371695;19;2254;-62
2023/09/14 03:52:52;;;;;;;;;;;;;;;;;;7370290;19;2030;-63
2023/09/14 03:55:21;;;;;;;;;;;;;;;;;;7369733;19;1707;-62
2023/09/14 03:57:49;;;;;;;;;;;;;;;;;;7369700;19;2024;-61
2023/09/14 04:00:18;;;;;;;;;;;;;;;;;;7372441;19;1665;-61
2023/09/14 04:02:48;;;;;;;;;;;;;;;;;;7367740;19;1701;-61
2023/09/14 04:05:17;;;;;;;;;;;;;;;;;;7368723;19;1495;-60
2023/09/14 04:07:45;;;;;;;;;;;;;;;;;;7366535;19;1751;-63
2023/09/14 04:10:13;;;;;;;;;;;;;;;;;;7373138;19;1362;-60
2023/09/14 04:12:41;;;;;;;;;;;;;;;;;;7369846;19;1966;-63
2023/09/14 04:15:09;;;;;;;;;;;;;;;;;;7371491;19;1812;-62
2023/09/14 04:17:37;;;;;;;;;;;;;;;;;;7370331;19;1865;-61
2023/09/14 04:20:10;;;;;;;;;;;;;;;;;;7367864;19;2057;-61
2023/09/14 04:22:38;;;;;;;;;;;;;;;;;;7370062;19;1777;-62
2023/09/14 04:25:07;;;;;;;;;;;;;;;;;;7372543;19;1498;-62
2023/09/14 04:27:36;;;;;;;;;;;;;;;;;;7368389;19;2078;-63
2023/09/14 04:30:04;;;;;;;;;;;;;;;;;;7372226;19;1655;-62
2023/09/14 04:32:32;;;;;;;;;;;;;;;;;;7368426;19;866;-62
2023/09/14 04:35:01;;;;;;;;;;;;;;;;;;7369306;19;1799;-63
2023/09/14 04:37:29;;;;;;;;;;;;;;;;;;7372230;19;1689;-63
2023/09/14 04:39:57;;;;;;;;;;;;;;;;;;7365623;19;1852;-68
2023/09/14 04:42:25;;;;;;;;;;;;;;;;;;7368885;19;854;-62
2023/09/14 04:44:53;;;;;;;;;;;;;;;;;;7366124;19;2002;-62
2023/09/14 04:47:21;;;;;;;;;;;;;;;;;;7370049;19;1478;-62
2023/09/14 04:49:50;;;;;;;;;;;;;;;;;;7367075;19;1816;-62
2023/09/14 04:52:19;;;;;;;;;;;;;;;;;;7369683;19;1718;-66
2023/09/14 04:54:47;;;;;;;;;;;;;;;;;;7367934;19;1760;-63
2023/09/14 04:57:16;;;;;;;;;;;;;;;;;;7369496;19;1608;-62
2023/09/14 04:59:44;;;;;;;;;;;;;;;;;;7367333;19;1865;-62
2023/09/14 05:02:12;;;;;;;;;;;;;;;;;;7370688;19;1229;-62
2023/09/14 05:04:40;;;;;;;;;;;;;;;;;;7365220;19;2136;-62
2023/09/14 05:07:08;;;;;;;;;;;;;;;;;;7368739;19;1844;-62
2023/09/14 05:09:36;;;;;;;;;;;;;;;;;;7369213;19;1975;-67
2023/09/14 05:12:04;;;;;;;;;;;;;;;;;;7368311;19;1499;-62
2023/09/14 05:14:32;;;;;;;;;;;;;;;;;;7365656;19;786;-63
2023/09/14 05:17:01;;;;;;;;;;;;;;;;;;7367449;19;1708;-61
2023/09/14 05:19:29;;;;;;;;;;;;;;;;;;7364146;19;1837;-60
2023/09/14 05:21:58;;;;;;;;;;;;;;;;;;7366062;19;2155;-62
2023/09/14 05:24:26;;;;;;;;;;;;;;;;;;7369157;19;1889;-64
2023/09/14 05:26:55;;;;;;;;;;;;;;;;;;7368213;19;1678;-62
2023/09/14 05:29:23;;;;;;;;;;;;;;;;;;7365274;19;872;-62
2023/09/14 05:31:52;;;;;;;;;;;;;;;;;;7366159;19;862;-67
2023/09/14 05:34:20;;;;;;;;;;;;;;;;;;7367820;19;1751;-62
2023/09/14 05:36:48;;;;;;;;;;;;;;;;;;7367653;19;1939;-62
2023/09/14 05:39:17;;;;;;;;;;;;;;;;;;7367361;19;1874;-63
2023/09/14 05:41:45;;;;;;;;;;;;;;;;;;7368094;19;1495;-60
2023/09/14 05:44:13;;;;;;;;;;;;;;;;;;7365737;19;865;-62
2023/09/14 05:46:42;;;;;;;;;;;;;;;;;;7366145;19;1974;-62
2023/09/14 05:49:11;;;;;;;;;;;;;;;;;;7369510;19;1837;-61
2023/09/14 05:51:39;;;;;;;;;;;;;;;;;;7367083;19;1847;-61
2023/09/14 05:54:08;;;;;;;;;;;;;;;;;;7368628;19;1608;-62
2023/09/14 05:56:39;;;;;;;;;;;;;;;;;;7363908;19;2063;-61
2023/09/14 05:59:07;;;;;;;;;;;;;;;;;;7366193;19;1874;-61
2023/09/14 06:01:36;;;;;;;;;;;;;;;;;;7366787;19;2008;-61
2023/09/14 06:04:04;;;;;;;;;;;;;;;;;;7367482;19;1605;-60
2023/09/14 06:06:32;;;;;;;;;;;;;;;;;;7366058;19;1631;-62
2023/09/14 06:09:00;;;;;;;;;;;;;;;;;;7367725;19;1800;-61
2023/09/14 06:11:29;;;;;;;;;;;;;;;;;;7369376;19;1764;-61
2023/09/14 06:13:57;;;;;;;;;;;;;;;;;;7367686;19;1823;-61
2023/09/14 06:16:25;;;;;;;;;;;;;;;;;;7367704;19;1831;-63
2023/09/14 06:18:53;;;;;;;;;;;;;;;;;;7367678;19;1854;-62
2023/09/14 06:21:21;;;;;;;;;;;;;;;;;;7366093;19;2092;-61
2023/09/14 06:23:50;;;;;;;;;;;;;;;;;;7366569;19;2038;-61
2023/09/14 06:26:18;;;;;;;;;;;;;;;;;;7367952;19;1618;-61
2023/09/14 06:28:46;;;;;;;;;;;;;;;;;;7364967;19;1710;-62
2023/09/14 06:31:14;;;;;;;;;;;;;;;;;;7366762;19;1797;-60
2023/09/14 06:33:42;;;;;;;;;;;;;;;;;;7367596;19;1682;-60
2023/09/14 06:36:10;;;;;;;;;;;;;;;;;;7367208;19;2043;-61
2023/09/14 06:38:38;;;;;;;;;;;;;;;;;;7364104;19;1853;-61
2023/09/14 06:41:07;;;;;;;;;;;;;;;;;;7367004;19;1983;-60
2023/09/14 06:43:35;;;;;;;;;;;;;;;;;;7366958;19;1937;-61
2023/09/14 06:46:03;;;;;;;;;;;;;;;;;;7364035;19;1795;-62
2023/09/14 06:48:31;;;;;;;;;;;;;;;;;;7363943;19;1795;-58
2023/09/14 06:50:59;;;;;;;;;;;;;;;;;;7368230;19;1660;-62
2023/09/14 06:53:27;;;;;;;;;;;;;;;;;;7364431;19;887;-60
2023/09/14 06:55:55;;;;;;;;;;;;;;;;;;7363634;19;876;-61
2023/09/14 06:58:24;;;;;;;;;;;;;;;;;;7361893;19;1857;-61
2023/09/14 07:00:52;;;;;;;;;;;;;;;;;;7363996;19;876;-61
2023/09/14 07:03:20;;;;;;;;;;;;;;;;;;7364375;19;812;-62
2023/09/14 07:05:48;;;;;;;;;;;;;;;;;;7364082;19;827;-63
2023/09/14 07:08:17;;;;;;;;;;;;;;;;;;7361914;19;1371;-62
2023/09/14 07:10:45;;;;;;;;;;;;;;;;;;7364036;19;2151;-61
2023/09/14 07:13:14;;;;;;;;;;;;;;;;;;7363558;19;2083;-63
2023/09/14 07:15:42;;;;;;;;;;;;;;;;;;7364130;19;1970;-62
2023/09/14 07:18:10;;;;;;;;;;;;;;;;;;7363371;19;1796;-63
2023/09/14 07:20:38;;;;;;;;;;;;;;;;;;7363681;19;1846;-62
2023/09/14 07:23:06;;;;;;;;;;;;;;;;;;7362096;19;1676;-58
2023/09/14 07:25:35;;;;;;;;;;;;;;;;;;7367003;19;1432;-59
2023/09/14 07:28:03;;;;;;;;;;;;;;;;;;7363445;19;1734;-60
2023/09/14 07:30:31;;;;;;;;;;;;;;;;;;7365553;19;1425;-60
2023/09/14 07:32:59;;;;;;;;;;;;;;;;;;7364338;19;2160;-61
2023/09/14 07:35:27;;;;;;;;;;;;;;;;;;7365085;19;1664;-62
2023/09/14 07:37:55;;;;;;;;;;;;;;;;;;7362607;19;1937;-63
2023/09/14 07:40:23;;;;;;;;;;;;;;;;;;7369396;19;1853;-61
2023/09/14 07:42:51;;;;;;;;;;;;;;;;;;7369779;19;859;-60
2023/09/14 07:45:19;;;;;;;;;;;;;;;;;;7370620;19;2004;-62
2023/09/14 07:47:48;;;;;;;;;;;;;;;;;;7368659;19;1869;-63
2023/09/14 07:50:16;;;;;;;;;;;;;;;;;;7370870;19;1788;-62
2023/09/14 07:52:44;;;;;;;;;;;;;;;;;;7369579;19;1871;-62
2023/09/14 07:55:12;;;;;;;;;;;;;;;;;;7370196;19;1854;-62
2023/09/14 07:57:40;;;;;;;;;;;;;;;;;;7369186;19;1821;-62
2023/09/14 08:00:08;;;;;;;;;;;;;;;;;;7370641;19;1856;-62
2023/09/14 08:02:40;;;;;;;;;;;;;;;;;;7369982;19;1777;-63
2023/09/14 08:05:08;;;;;;;;;;;;;;;;;;7372165;19;1697;-62
2023/09/14 08:07:36;;;;;;;;;;;;;;;;;;7369108;19;1909;-62
2023/09/14 08:10:05;;;;;;;;;;;;;;;;;;7368430;19;1800;-62
2023/09/14 08:12:33;;;;;;;;;;;;;;;;;;7370393;19;1961;-62
2023/09/14 08:15:01;;;;;;;;;;;;;;;;;;7369771;19;2003;-60
2023/09/14 08:17:29;;;;;;;;;;;;;;;;;;7371931;19;1819;-62
2023/09/14 08:19:57;;;;;;;;;;;;;;;;;;7369208;19;1853;-63
2023/09/14 08:22:25;;;;;;;;;;;;;;;;;;7370770;19;1883;-61
2023/09/14 08:24:54;;;;;;;;;;;;;;;;;;7370286;19;1857;-62
2023/09/14 08:27:22;;;;;;;;;;;;;;;;;;7369682;19;1795;-61
2023/09/14 08:29:50;;;;;;;;;;;;;;;;;;7369995;19;1748;-62
2023/09/14 08:32:18;;;;;;;;;;;;;;;;;;7368558;19;1812;-62
2023/09/14 08:34:46;;;;;;;;;;;;;;;;;;7369595;19;1708;-62
2023/09/14 08:37:14;;;;;;;;;;;;;;;;;;7367824;19;1994;-61
2023/09/14 08:39:43;;;;;;;;;;;;;;;;;;7370988;19;1850;-61
2023/09/14 08:42:11;;;;;;;;;;;;;;;;;;7368358;19;1831;-61
2023/09/14 08:44:39;;;;;;;;;;;;;;;;;;7369774;19;1710;-62
2023/09/14 08:47:07;;;;;;;;;;;;;;;;;;7368949;19;1841;-62
2023/09/14 08:49:36;;;;;;;;;;;;;;;;;;7369054;19;1961;-62
2023/09/14 08:52:04;;;;;;;;;;;;;;;;;;7367834;19;1868;-62
2023/09/14 08:54:32;;;;;;;;;;;;;;;;;;7366689;19;1924;-62
2023/09/14 08:57:01;;;;;;;;;;;;;;;;;;7369804;19;1833;-62
2023/09/14 08:59:29;;;;;;;;;;;;;;;;;;7372431;19;1845;-62
2023/09/14 09:01:57;;;;;;;;;;;;;;;;;;7367389;19;853;-61
2023/09/14 09:04:26;;;;;;;;;;;;;;;;;;7367675;19;846;-59
2023/09/14 09:06:54;;;;;;;;;;;;;;;;;;7371146;19;1262;-60
2023/09/14 09:09:23;;;;;;;;;;;;;;;;;;7368081;19;817;-60
2023/09/14 09:11:53;;;;;;;;;;;;;;;;;;7367651;19;857;-61
2023/09/14 09:14:23;;;;;;;;;;;;;;;;;;7367696;19;766;-63
2023/09/14 09:16:51;;;;;;;;;;;;;;;;;;7367062;19;1254;-60
2023/09/14 09:19:19;;;;;;;;;;;;;;;;;;7368240;19;1867;-61
2023/09/14 09:21:48;;;;;;;;;;;;;;;;;;7368041;19;817;-62
2023/09/14 09:24:19;;;;;;;;;;;;;;;;;;7367902;19;786;-62
2023/09/14 09:26:47;;;;;;;;;;;;;;;;;;7365200;19;1275;-62
2023/09/14 09:29:16;;;;;;;;;;;;;;;;;;7368741;19;825;-64
2023/09/14 09:31:44;;;;;;;;;;;;;;;;;;7370781;19;695;-62
2023/09/14 09:34:12;;;;;;;;;;;;;;;;;;7369762;19;860;-60
2023/09/14 09:36:40;;;;;;;;;;;;;;;;;;7367026;19;1289;-62
2023/09/14 09:39:11;;;;;;;;;;;;;;;;;;7368381;19;864;-62
2023/09/14 09:41:39;;;;;;;;;;;;;;;;;;7368405;19;594;-62
2023/09/14 09:44:09;;;;;;;;;;;;;;;;;;7367969;19;789;-62
2023/09/14 09:46:37;;;;;;;;;;;;;;;;;;7368207;19;1260;-63
2023/09/14 09:49:05;;;;;;;;;;;;;;;;;;7368323;19;917;-62
2023/09/14 09:51:33;;;;;;;;;;;;;;;;;;7368039;19;859;-62
2023/09/14 09:54:02;;;;;;;;;;;;;;;;;;7367187;19;851;-62
2023/09/14 09:56:30;;;;;;;;;;;;;;;;;;7365978;19;1282;-66
2023/09/14 09:58:58;;;;;;;;;;;;;;;;;;7366586;19;810;-61
2023/09/14 10:01:26;;;;;;;;;;;;;;;;;;7363958;19;1850;-62
2023/09/14 10:03:56;;;;;;;;;;;;;;;;;;7366472;19;845;-62
2023/09/14 10:06:24;;;;;;;;;;;;;;;;;;7365633;19;1213;-62
2023/09/14 10:08:52;;;;;;;;;;;;;;;;;;7366526;19;806;-62
2023/09/14 10:11:20;;;;;;;;;;;;;;;;;;7366578;19;829;-63
2023/09/14 10:13:48;;;;;;;;;;;;;;;;;;7366047;19;854;-62
2023/09/14 10:16:16;;;;;;;;;;;;;;;;;;7365739;19;1296;-62
2023/09/14 10:18:44;;;;;;;;;;;;;;;;;;7365937;19;766;-62
2023/09/14 10:21:13;;;;;;;;;;;;;;;;;;7363326;19;1842;-62
2023/09/14 10:23:41;;;;;;;;;;;;;;;;;;7366420;19;807;-61
2023/09/14 10:26:09;;;;;;;;;;;;;;;;;;7365772;19;741;-63
2023/09/14 10:28:37;;;;;;;;;;;;;;;;;;7363123;19;1269;-61
2023/09/14 10:31:05;;;;;;;;;;;;;;;;;;7366861;19;779;-61
2023/09/14 10:33:33;;;;;;;;;;;;;;;;;;7365689;19;859;-61
2023/09/14 10:36:01;;;;;;;;;;;;;;;;;;7364990;19;864;-61
2023/09/14 10:38:29;;;;;;;;;;;;;;;;;;7362647;19;1320;-61
2023/09/14 10:40:58;;;;;;;;;;;;;;;;;;7363247;19;2234;-63
2023/09/14 10:43:26;;;;;;;;;;;;;;;;;;7365339;19;747;-61
2023/09/14 10:45:56;;;;;;;;;;;;;;;;;;7364447;19;837;-63
2023/09/14 10:48:29;;;;;;;;;;;;;;;;;;7362484;19;1351;-61
2023/09/14 10:50:57;;;;;;;;;;;;;;;;;;7364740;19;771;-63
2023/09/14 10:53:25;;;;;;;;;;;;;;;;;;7364777;19;841;-62
2023/09/14 10:55:53;;;;;;;;;;;;;;;;;;7364957;19;766;-62
2023/09/14 10:58:21;;;;;;;;;;;;;;;;;;7362499;19;1269;-62
2023/09/14 11:00:49;;;;;;;;;;;;;;;;;;7362833;19;1843;-62
2023/09/14 11:03:17;;;;;;;;;;;;;;;;;;7364481;19;854;-62
2023/09/14 11:05:46;;;;;;;;;;;;;;;;;;7363420;19;832;-61
2023/09/14 11:08:15;;;;;;;;;;;;;;;;;;7361977;19;1287;-62
2023/09/14 11:10:43;;;;;;;;;;;;;;;;;;7364275;19;817;-62
2023/09/14 11:13:11;;;;;;;;;;;;;;;;;;7365008;19;809;-62
2023/09/14 11:15:39;;;;;;;;;;;;;;;;;;7367427;19;817;-62
2023/09/14 11:18:07;;;;;;;;;;;;;;;;;;7366954;19;2425;-62
2023/09/14 11:20:36;;;;;;;;;;;;;;;;;;7370763;19;1876;-62
2023/09/14 11:23:04;;;;;;;;;;;;;;;;;;7372495;19;1797;-61
2023/09/14 11:25:32;;;;;;;;;;;;;;;;;;7371854;19;1769;-61
2023/09/14 11:28:00;;;;;;;;;;;;;;;;;;7372038;19;1656;-61
2023/09/14 11:30:28;;;;;;;;;;;;;;;;;;7370258;19;775;-61
2023/09/14 11:32:57;;;;;;;;;;;;;;;;;;7370395;19;844;-61
2023/09/14 11:35:25;;;;;;;;;;;;;;;;;;7370011;19;798;-61
2023/09/14 11:37:53;;;;;;;;;;;;;;;;;;7369459;19;1254;-61
2023/09/14 11:40:21;;;;;;;;;;;;;;;;;;7369908;19;1847;-61
2023/09/14 11:42:49;;;;;;;;;;;;;;;;;;7370288;19;820;-61
2023/09/14 11:45:17;;;;;;;;;;;;;;;;;;7369102;19;851;-61
2023/09/14 11:47:45;;;;;;;;;;;;;;;;;;7367840;19;2245;-61
2023/09/14 11:50:13;;;;;;;;;;;;;;;;;;7370753;19;1725;-61
2023/09/14 11:52:42;;;;;;;;;;;;;;;;;;7371413;19;1861;-61
2023/09/14 11:55:11;;;;;;;;;;;;;;;;;;7374208;19;1696;-62
2023/09/14 11:57:40;;;;;;;;;;;;;;;;;;7369147;19;1936;-61
2023/09/14 12:00:08;;;;;;;;;;;;;;;;;;7373636;19;1841;-62
2023/09/14 12:02:36;;;;;;;;;;;;;;;;;;7370450;19;1688;-62
2023/09/14 12:05:04;;;;;;;;;;;;;;;;;;7373158;19;1828;-62
2023/09/14 12:07:33;;;;;;;;;;;;;;;;;;7370354;19;1924;-62
2023/09/14 12:10:01;;;;;;;;;;;;;;;;;;7373206;19;1246;-61
2023/09/14 12:12:30;;;;;;;;;;;;;;;;;;7369797;19;850;-61
2023/09/14 12:14:58;;;;;;;;;;;;;;;;;;7369906;19;1712;-61
2023/09/14 12:17:26;;;;;;;;;;;;;;;;;;7369248;19;1583;-61
2023/09/14 12:19:55;;;;;;;;;;;;;;;;;;7371899;19;1582;-62
2023/09/14 12:22:23;;;;;;;;;;;;;;;;;;7374143;19;1470;-61
2023/09/14 12:24:52;;;;;;;;;;;;;;;;;;7367420;19;1992;-61
2023/09/14 12:27:20;;;;;;;;;;;;;;;;;;7369313;19;1451;-60
2023/09/14 12:29:48;;;;;;;;;;;;;;;;;;7369290;19;852;-61
2023/09/14 12:32:16;;;;;;;;;;;;;;;;;;7368483;19;1949;-62
2023/09/14 12:34:44;;;;;;;;;;;;;;;;;;7372351;19;1698;-60
2023/09/14 12:37:12;;;;;;;;;;;;;;;;;;7371071;19;1913;-61
2023/09/14 12:39:43;;;;;;;;;;;;;;;;;;7370564;19;1717;-60
2023/09/14 12:42:11;;;;;;;;;;;;;;;;;;7367325;19;1854;-60
2023/09/14 12:44:39;;;;;;;;;;;;;;;;;;7370271;19;1597;-61
2023/09/14 12:47:08;;;;;;;;;;;;;;;;;;7369918;19;2078;-59
2023/09/14 12:49:36;;;;;;;;;;;;;;;;;;7370855;19;1604;-60
2023/09/14 12:52:05;;;;;;;;;;;;;;;;;;7370029;19;1716;-61
2023/09/14 12:54:33;;;;;;;;;;;;;;;;;;7370415;19;2136;-62
2023/09/14 12:57:01;;;;;;;;;;;;;;;;;;7369300;19;1853;-63
2023/09/14 12:59:30;;;;;;;;;;;;;;;;;;7370292;19;1823;-62
2023/09/14 13:01:58;;;;;;;;;;;;;;;;;;7368556;19;1859;-61
2023/09/14 13:04:26;;;;;;;;;;;;;;;;;;7368479;19;1719;-61
2023/09/14 13:06:56;;;;;;;;;;;;;;;;;;7366856;19;1321;-61
2023/09/14 13:09:24;;;;;;;;;;;;;;;;;;7370823;19;1668;-63
2023/09/14 13:11:53;;;;;;;;;;;;;;;;;;7371865;19;1658;-60
2023/09/14 13:14:21;;;;;;;;;;;;;;;;;;7368771;19;2098;-62
2023/09/14 13:16:49;;;;;;;;;;;;;;;;;;7368587;19;2078;-62
2023/09/14 13:19:20;;;;;;;;;;;;;;;;;;7371631;19;1712;-63
2023/09/14 13:21:49;;;;;;;;;;;;;;;;;;7365828;19;1830;-65
2023/09/14 13:24:17;;;;;;;;;;;;;;;;;;7367837;19;890;-60
2023/09/14 13:26:46;;;;;;;;;;;;;;;;;;7366932;19;1266;-61
2023/09/14 13:29:17;;;;;;;;;;;;;;;;;;7367404;19;927;-62
2023/09/14 13:31:45;;;;;;;;;;;;;;;;;;7367734;19;716;-61
2023/09/14 13:34:13;;;;;;;;;;;;;;;;;;7367480;19;850;-63
2023/09/14 13:36:41;;;;;;;;;;;;;;;;;;7365587;19;1269;-62
2023/09/14 13:39:10;;;;;;;;;;;;;;;;;;7366480;19;805;-60
2023/09/14 13:41:38;;;;;;;;;;;;;;;;;;7365388;19;1853;-59
2023/09/14 13:44:06;;;;;;;;;;;;;;;;;;7366793;19;806;-60
2023/09/14 13:46:35;;;;;;;;;;;;;;;;;;7365653;19;1290;-61
2023/09/14 13:49:03;;;;;;;;;;;;;;;;;;7366648;19;777;-61
2023/09/14 13:51:31;;;;;;;;;;;;;;;;;;7367591;19;823;-61
2023/09/14 13:53:59;;;;;;;;;;;;;;;;;;7366616;19;826;-61
2023/09/14 13:56:27;;;;;;;;;;;;;;;;;;7366243;19;1233;-61
2023/09/14 13:58:56;;;;;;;;;;;;;;;;;;7366893;19;841;-61
2023/09/14 14:01:26;;;;;;;;;;;;;;;;;;7365275;19;1849;-64
2023/09/14 14:03:54;;;;;;;;;;;;;;;;;;7366730;19;911;-61
2023/09/14 14:06:22;;;;;;;;;;;;;;;;;;7365590;19;1282;-61
2023/09/14 14:08:50;;;;;;;;;;;;;;;;;;7367188;19;788;-61
2023/09/14 14:11:19;;;;;;;;;;;;;;;;;;7367180;19;858;-61
2023/09/14 14:13:48;;;;;;;;;;;;;;;;;;7368136;19;785;-61
2023/09/14 14:16:16;;;;;;;;;;;;;;;;;;7365828;19;850;-62
2023/09/14 14:18:44;;;;;;;;;;;;;;;;;;7366943;19;838;-60
2023/09/14 14:21:12;;;;;;;;;;;;;;;;;;7366565;19;1859;-60
2023/09/14 14:23:40;;;;;;;;;;;;;;;;;;7367622;19;810;-61
2023/09/14 14:26:09;;;;;;;;;;;;;;;;;;7365992;19;879;-61
2023/09/14 14:28:37;;;;;;;;;;;;;;;;;;7363985;19;1249;-62
2023/09/14 14:31:05;;;;;;;;;;;;;;;;;;7366276;19;798;-61
2023/09/14 14:33:33;;;;;;;;;;;;;;;;;;7366901;19;829;-63
2023/09/14 14:36:01;;;;;;;;;;;;;;;;;;7364951;19;827;-63
2023/09/14 14:38:29;;;;;;;;;;;;;;;;;;7362372;19;1336;-61
2023/09/14 14:40:58;;;;;;;;;;;;;;;;;;7365010;19;1839;-62
2023/09/14 14:43:26;;;;;;;;;;;;;;;;;;7364785;19;787;-62
2023/09/14 14:45:56;;;;;;;;;;;;;;;;;;7364367;19;810;-62
2023/09/14 14:48:24;;;;;;;;;;;;;;;;;;7363288;19;1310;-60
2023/09/14 14:50:52;;;;;;;;;;;;;;;;;;7369887;19;922;-62
2023/09/14 14:53:23;;;;;;;;;;;;;;;;;;7371631;19;814;-62
2023/09/14 14:55:52;;;;;;;;;;;;;;;;;;7371320;19;795;-61
2023/09/14 14:58:23;;;;;;;;;;;;;;;;;;7369939;19;1271;-62
2023/09/14 15:00:51;;;;;;;;;;;;;;;;;;7371409;19;1853;-62
2023/09/14 15:03:19;;;;;;;;;;;;;;;;;;7371235;19;761;-63
2023/09/14 15:05:47;;;;;;;;;;;;;;;;;;7370217;19;871;-62
2023/09/14 15:08:15;;;;;;;;;;;;;;;;;;7369208;19;1270;-61
2023/09/14 15:10:43;;;;;;;;;;;;;;;;;;7371307;19;881;-62
2023/09/14 15:13:11;;;;;;;;;;;;;;;;;;7371416;19;806;-61
2023/09/14 15:15:40;;;;;;;;;;;;;;;;;;7368957;19;869;-60
2023/09/14 15:18:08;;;;;;;;;;;;;;;;;;7369686;19;1280;-62
2023/09/14 15:20:36;;;;;;;;;;;;;;;;;;7371025;19;823;-61
2023/09/14 15:23:04;;;;;;;;;;;;;;;;;;7369030;19;1903;-61
2023/09/14 15:25:33;;;;;;;;;;;;;;;;;;7370170;19;812;-62
2023/09/14 15:28:01;;;;;;;;;;;;;;;;;;7369877;19;1292;-60
2023/09/14 15:30:29;;;;;;;;;;;;;;;;;;7370979;19;809;-62
2023/09/14 15:32:58;;;;;;;;;;;;;;;;;;7371061;19;864;-62
2023/09/14 15:35:26;;;;;;;;;;;;;;;;;;7372160;19;1598;-61
2023/09/14 15:37:54;;;;;;;;;;;;;;;;;;7370725;19;1695;-62
2023/09/14 15:40:22;;;;;;;;;;;;;;;;;;7373433;19;1580;-62
2023/09/14 15:42:50;;;;;;;;;;;;;;;;;;7367628;19;2029;-63
2023/09/14 15:45:18;;;;;;;;;;;;;;;;;;7368942;19;1819;-62
2023/09/14 15:47:46;;;;;;;;;;;;;;;;;;7370988;19;1636;-62
2023/09/14 15:50:15;;;;;;;;;;;;;;;;;;7371190;19;1800;-62
2023/09/14 15:52:43;;;;;;;;;;;;;;;;;;7371952;19;1674;-62
2023/09/14 15:55:11;;;;;;;;;;;;;;;;;;7370915;19;1806;-62
2023/09/14 15:57:39;;;;;;;;;;;;;;;;;;7372674;19;1367;-62
2023/09/14 16:00:05;;;;;;;;;;;;;;;;;;7372058;19;1728;-62
2023/09/14 16:02:37;;;;;;;;;;;;;;;;;;7372309;19;1857;-61
2023/09/14 16:05:06;;;;;;;;;;;;;;;;;;7371772;19;2035;-61
2023/09/14 16:07:35;;;;;;;;;;;;;;;;;;7371281;19;1778;-61
2023/09/14 16:10:03;;;;;;;;;;;;;;;;;;7368128;19;1696;-62
2023/09/14 16:12:31;;;;;;;;;;;;;;;;;;7373170;19;2071;-62
2023/09/14 16:14:59;;;;;;;;;;;;;;;;;;7370890;19;1726;-61
2023/09/14 16:17:28;;;;;;;;;;;;;;;;;;7371399;19;1724;-62
2023/09/14 16:19:56;;;;;;;;;;;;;;;;;;7371430;19;1669;-61
2023/09/14 16:22:24;;;;;;;;;;;;;;;;;;7371966;19;1845;-62
2023/09/14 16:24:52;;;;;;;;;;;;;;;;;;7368876;19;876;-61
2023/09/14 16:27:20;;;;;;;;;;;;;;;;;;7368044;19;1288;-60
2023/09/14 16:29:48;;;;;;;;;;;;;;;;;;7372161;19;1773;-61
2023/09/14 16:32:16;;;;;;;;;;;;;;;;;;7371034;19;1723;-61
2023/09/14 16:34:44;;;;;;;;;;;;;;;;;;7368769;19;2001;-61
2023/09/14 16:37:13;;;;;;;;;;;;;;;;;;7368594;19;2101;-62
2023/09/14 16:39:42;;;;;;;;;;;;;;;;;;7370336;19;1946;-61
2023/09/14 16:42:10;;;;;;;;;;;;;;;;;;7371656;19;1845;-61
2023/09/14 16:44:38;;;;;;;;;;;;;;;;;;7369854;19;1717;-62
2023/09/14 16:47:07;;;;;;;;;;;;;;;;;;7368920;19;1856;-60
2023/09/14 16:49:35;;;;;;;;;;;;;;;;;;7369606;19;1669;-61
2023/09/14 16:52:03;;;;;;;;;;;;;;;;;;7370652;19;1852;-61
2023/09/14 16:54:31;;;;;;;;;;;;;;;;;;7371188;19;1313;-61
2023/09/14 16:57:00;;;;;;;;;;;;;;;;;;7369644;19;1721;-61
2023/09/14 16:59:28;;;;;;;;;;;;;;;;;;7372217;19;1444;-60
2023/09/14 17:01:56;;;;;;;;;;;;;;;;;;7367551;19;1841;-62
2023/09/14 17:04:24;;;;;;;;;;;;;;;;;;7368832;19;879;-62
2023/09/14 17:06:52;;;;;;;;;;;;;;;;;;7367215;19;1282;-62
2023/09/14 17:09:21;;;;;;;;;;;;;;;;;;7368710;19;919;-62
2023/09/14 17:11:49;;;;;;;;;;;;;;;;;;7367746;19;1655;-61
2023/09/14 17:14:17;;;;;;;;;;;;;;;;;;7370259;19;1793;-61